sensor_id;sensor_type;location;lat;lon;timestamp;P1;durP1;ratioP1;P2;durP2;ratioP2
36001;SDS011;22070;50.922;5.430;2024-03-23T00:55:33;5.25;;;1.80;;
36001;SDS011;22070;50.922;5.430;2024-03-23T00:57:59;9.48;;;1.60;;
36001;SDS011;22070;50.922;5.430;2024-03-23T01:00:24;12.90;;;2.60;;
36001;SDS011;22070;50.922;5.430;2024-03-23T01:02:50;7.53;;;1.70;;
36001;SDS011;22070;50.922;5.430;2024-03-23T01:05:15;6.75;;;1.85;;
36001;SDS011;22070;50.922;5.430;2024-03-23T01:07:41;5.20;;;2.20;;
36001;SDS011;22070;50.922;5.430;2024-03-23T01:10:07;6.40;;;1.70;;
36001;SDS011;22070;50.922;5.430;2024-03-23T01:12:32;11.63;;;2.03;;
36001;SDS011;22070;50.922;5.430;2024-03-23T01:14:58;6.37;;;1.63;;
36001;SDS011;22070;50.922;5.430;2024-03-23T01:17:24;4.65;;;2.13;;
36001;SDS011;22070;50.922;5.430;2024-03-23T01:19:49;12.20;;;2.07;;
36001;SDS011;22070;50.922;5.430;2024-03-23T01:22:15;7.53;;;1.60;;
36001;SDS011;22070;50.922;5.430;2024-03-23T01:24:40;11.90;;;2.35;;
36001;SDS011;22070;50.922;5.430;2024-03-23T01:27:06;7.43;;;1.48;;
36001;SDS011;22070;50.922;5.430;2024-03-23T01:29:32;8.73;;;1.93;;
36001;SDS011;22070;50.922;5.430;2024-03-23T01:31:57;7.73;;;1.70;;
36001;SDS011;22070;50.922;5.430;2024-03-23T01:34:23;9.70;;;1.63;;
36001;SDS011;22070;50.922;5.430;2024-03-23T01:36:50;7.25;;;1.50;;
36001;SDS011;22070;50.922;5.430;2024-03-23T01:39:15;4.67;;;1.37;;
36001;SDS011;22070;50.922;5.430;2024-03-23T01:41:41;4.68;;;1.40;;
36001;SDS011;22070;50.922;5.430;2024-03-23T01:44:08;7.55;;;1.80;;
36001;SDS011;22070;50.922;5.430;2024-03-23T01:46:37;6.35;;;1.67;;
36001;SDS011;22070;50.922;5.430;2024-03-23T01:49:06;3.30;;;1.20;;
36001;SDS011;22070;50.922;5.430;2024-03-23T01:51:33;6.78;;;1.25;;
36001;SDS011;22070;50.922;5.430;2024-03-23T01:54:00;3.28;;;1.02;;
36001;SDS011;22070;50.922;5.430;2024-03-23T01:56:31;4.30;;;1.50;;
36001;SDS011;22070;50.922;5.430;2024-03-23T01:58:58;8.13;;;2.03;;
36001;SDS011;22070;50.922;5.430;2024-03-23T02:01:24;7.88;;;1.05;;
36001;SDS011;22070;50.922;5.430;2024-03-23T02:03:50;6.87;;;1.10;;
36001;SDS011;22070;50.922;5.430;2024-03-23T02:06:15;6.00;;;1.20;;
36001;SDS011;22070;50.922;5.430;2024-03-23T02:08:41;5.43;;;1.42;;
36001;SDS011;22070;50.922;5.430;2024-03-23T02:11:07;8.90;;;1.77;;
36001;SDS011;22070;50.922;5.430;2024-03-23T02:13:33;13.53;;;1.10;;
36001;SDS011;22070;50.922;5.430;2024-03-23T02:15:58;7.27;;;1.77;;
36001;SDS011;22070;50.922;5.430;2024-03-23T02:18:24;3.93;;;1.57;;
36001;SDS011;22070;50.922;5.430;2024-03-23T02:20:51;9.27;;;1.55;;
36001;SDS011;22070;50.922;5.430;2024-03-23T02:23:17;9.03;;;1.30;;
36001;SDS011;22070;50.922;5.430;2024-03-23T02:25:45;9.35;;;1.50;;
36001;SDS011;22070;50.922;5.430;2024-03-23T02:28:11;8.27;;;1.38;;
36001;SDS011;22070;50.922;5.430;2024-03-23T02:30:37;7.97;;;1.60;;
36001;SDS011;22070;50.922;5.430;2024-03-23T02:33:03;5.70;;;1.55;;
36001;SDS011;22070;50.922;5.430;2024-03-23T02:35:29;8.37;;;1.90;;
36001;SDS011;22070;50.922;5.430;2024-03-23T02:37:54;7.90;;;1.80;;
36001;SDS011;22070;50.922;5.430;2024-03-23T02:40:22;7.90;;;2.10;;
36001;SDS011;22070;50.922;5.430;2024-03-23T02:42:48;5.05;;;1.95;;
36001;SDS011;22070;50.922;5.430;2024-03-23T02:45:14;6.13;;;1.73;;
36001;SDS011;22070;50.922;5.430;2024-03-23T02:47:40;12.27;;;1.90;;
36001;SDS011;22070;50.922;5.430;2024-03-23T02:50:05;15.43;;;2.20;;
36001;SDS011;22070;50.922;5.430;2024-03-23T02:52:32;13.95;;;2.88;;
36001;SDS011;22070;50.922;5.430;2024-03-23T02:54:58;7.77;;;1.60;;
36001;SDS011;22070;50.922;5.430;2024-03-23T02:57:23;6.60;;;1.63;;
36001;SDS011;22070;50.922;5.430;2024-03-23T02:59:49;14.50;;;2.28;;
36001;SDS011;22070;50.922;5.430;2024-03-23T03:02:15;9.10;;;1.73;;
36001;SDS011;22070;50.922;5.430;2024-03-23T03:04:41;7.82;;;2.00;;
36001;SDS011;22070;50.922;5.430;2024-03-23T03:07:07;16.40;;;4.32;;
36001;SDS011;22070;50.922;5.430;2024-03-23T03:09:33;6.13;;;1.47;;
36001;SDS011;22070;50.922;5.430;2024-03-23T03:14:26;10.23;;;2.13;;
36001;SDS011;22070;50.922;5.430;2024-03-23T03:16:53;7.72;;;1.85;;
36001;SDS011;22070;50.922;5.430;2024-03-23T03:19:19;7.07;;;1.77;;
36001;SDS011;22070;50.922;5.430;2024-03-23T03:21:44;13.38;;;2.30;;
36001;SDS011;22070;50.922;5.430;2024-03-23T03:24:10;7.43;;;1.52;;
36001;SDS011;22070;50.922;5.430;2024-03-23T03:26:36;6.97;;;1.77;;
36001;SDS011;22070;50.922;5.430;2024-03-23T03:29:02;7.43;;;2.57;;
36001;SDS011;22070;50.922;5.430;2024-03-23T03:31:27;6.77;;;2.07;;
36001;SDS011;22070;50.922;5.430;2024-03-23T03:33:53;11.40;;;2.10;;
36001;SDS011;22070;50.922;5.430;2024-03-23T03:36:19;12.73;;;1.83;;
36001;SDS011;22070;50.922;5.430;2024-03-23T03:38:45;10.97;;;1.63;;
36001;SDS011;22070;50.922;5.430;2024-03-23T03:41:10;7.40;;;2.17;;
36001;SDS011;22070;50.922;5.430;2024-03-23T03:43:36;9.90;;;1.60;;
36001;SDS011;22070;50.922;5.430;2024-03-23T03:46:03;7.07;;;1.88;;
36001;SDS011;22070;50.922;5.430;2024-03-23T03:48:28;7.63;;;1.60;;
36001;SDS011;22070;50.922;5.430;2024-03-23T03:50:54;15.17;;;2.47;;
36001;SDS011;22070;50.922;5.430;2024-03-23T03:53:20;4.67;;;1.70;;
36001;SDS011;22070;50.922;5.430;2024-03-23T03:55:46;11.37;;;1.90;;
36001;SDS011;22070;50.922;5.430;2024-03-23T03:58:12;5.45;;;1.75;;
36001;SDS011;22070;50.922;5.430;2024-03-23T04:00:37;8.88;;;2.03;;
36001;SDS011;22070;50.922;5.430;2024-03-23T04:03:03;8.73;;;1.93;;
36001;SDS011;22070;50.922;5.430;2024-03-23T04:05:29;6.25;;;2.40;;
36001;SDS011;22070;50.922;5.430;2024-03-23T04:07:55;6.10;;;1.63;;
36001;SDS011;22070;50.922;5.430;2024-03-23T04:10:20;10.67;;;2.00;;
36001;SDS011;22070;50.922;5.430;2024-03-23T04:12:46;7.22;;;1.67;;
36001;SDS011;22070;50.922;5.430;2024-03-23T04:15:13;8.02;;;2.30;;
36001;SDS011;22070;50.922;5.430;2024-03-23T04:17:39;7.80;;;2.03;;
36001;SDS011;22070;50.922;5.430;2024-03-23T04:20:06;4.38;;;1.70;;
36001;SDS011;22070;50.922;5.430;2024-03-23T04:22:36;14.88;;;2.10;;
36001;SDS011;22070;50.922;5.430;2024-03-23T04:25:02;9.15;;;1.85;;
36001;SDS011;22070;50.922;5.430;2024-03-23T04:27:31;10.20;;;3.13;;
36001;SDS011;22070;50.922;5.430;2024-03-23T04:29:58;5.93;;;1.67;;
36001;SDS011;22070;50.922;5.430;2024-03-23T04:32:25;9.02;;;1.80;;
36001;SDS011;22070;50.922;5.430;2024-03-23T04:34:51;7.55;;;2.42;;
36001;SDS011;22070;50.922;5.430;2024-03-23T04:37:17;13.60;;;2.43;;
36001;SDS011;22070;50.922;5.430;2024-03-23T04:39:43;8.50;;;2.30;;
36001;SDS011;22070;50.922;5.430;2024-03-23T04:42:08;8.87;;;2.33;;
36001;SDS011;22070;50.922;5.430;2024-03-23T04:44:34;5.00;;;1.83;;
36001;SDS011;22070;50.922;5.430;2024-03-23T04:47:00;8.60;;;2.03;;
36001;SDS011;22070;50.922;5.430;2024-03-23T04:49:25;9.73;;;2.10;;
36001;SDS011;22070;50.922;5.430;2024-03-23T04:51:51;8.63;;;2.13;;
36001;SDS011;22070;50.922;5.430;2024-03-23T04:54:17;9.95;;;1.90;;
36001;SDS011;22070;50.922;5.430;2024-03-23T04:56:43;7.45;;;2.03;;
36001;SDS011;22070;50.922;5.430;2024-03-23T04:59:08;9.57;;;2.03;;
36001;SDS011;22070;50.922;5.430;2024-03-23T05:01:34;6.07;;;1.97;;
36001;SDS011;22070;50.922;5.430;2024-03-23T05:04:00;7.47;;;1.77;;
36001;SDS011;22070;50.922;5.430;2024-03-23T05:06:26;12.50;;;2.15;;
36001;SDS011;22070;50.922;5.430;2024-03-23T05:08:52;6.33;;;2.13;;
36001;SDS011;22070;50.922;5.430;2024-03-23T05:11:18;4.83;;;2.10;;
36001;SDS011;22070;50.922;5.430;2024-03-23T05:13:44;6.57;;;2.53;;
36001;SDS011;22070;50.922;5.430;2024-03-23T05:16:10;9.98;;;2.33;;
36001;SDS011;22070;50.922;5.430;2024-03-23T05:18:35;7.33;;;1.53;;
36001;SDS011;22070;50.922;5.430;2024-03-23T05:21:01;13.50;;;2.72;;
36001;SDS011;22070;50.922;5.430;2024-03-23T05:23:27;10.10;;;2.40;;
36001;SDS011;22070;50.922;5.430;2024-03-23T05:28:19;13.97;;;2.53;;
36001;SDS011;22070;50.922;5.430;2024-03-23T05:30:55;12.25;;;2.97;;
36001;SDS011;22070;50.922;5.430;2024-03-23T05:33:22;16.33;;;3.33;;
36001;SDS011;22070;50.922;5.430;2024-03-23T05:35:55;12.38;;;2.97;;
36001;SDS011;22070;50.922;5.430;2024-03-23T05:38:22;8.90;;;3.47;;
36001;SDS011;22070;50.922;5.430;2024-03-23T05:40:58;10.00;;;3.45;;
36001;SDS011;22070;50.922;5.430;2024-03-23T05:43:24;11.70;;;3.60;;
36001;SDS011;22070;50.922;5.430;2024-03-23T05:45:56;6.73;;;2.13;;
36001;SDS011;22070;50.922;5.430;2024-03-23T05:48:23;14.13;;;4.15;;
36001;SDS011;22070;50.922;5.430;2024-03-23T05:50:49;12.00;;;3.80;;
36001;SDS011;22070;50.922;5.430;2024-03-23T05:53:16;10.57;;;3.73;;
36001;SDS011;22070;50.922;5.430;2024-03-23T05:55:42;13.05;;;3.90;;
36001;SDS011;22070;50.922;5.430;2024-03-23T05:58:08;11.90;;;4.20;;
36001;SDS011;22070;50.922;5.430;2024-03-23T06:00:35;16.02;;;4.03;;
36001;SDS011;22070;50.922;5.430;2024-03-23T06:03:01;10.37;;;4.00;;
36001;SDS011;22070;50.922;5.430;2024-03-23T06:05:26;17.80;;;4.95;;
36001;SDS011;22070;50.922;5.430;2024-03-23T06:07:52;21.27;;;5.13;;
36001;SDS011;22070;50.922;5.430;2024-03-23T06:10:18;17.57;;;4.87;;
36001;SDS011;22070;50.922;5.430;2024-03-23T06:12:45;27.83;;;4.90;;
36001;SDS011;22070;50.922;5.430;2024-03-23T06:15:11;9.57;;;4.15;;
36001;SDS011;22070;50.922;5.430;2024-03-23T06:17:37;20.58;;;4.80;;
36001;SDS011;22070;50.922;5.430;2024-03-23T06:20:03;13.40;;;3.15;;
36001;SDS011;22070;50.922;5.430;2024-03-23T06:22:31;12.95;;;4.18;;
36001;SDS011;22070;50.922;5.430;2024-03-23T06:24:57;16.70;;;4.30;;
36001;SDS011;22070;50.922;5.430;2024-03-23T06:27:22;11.27;;;3.90;;
36001;SDS011;22070;50.922;5.430;2024-03-23T06:29:48;18.50;;;3.57;;
36001;SDS011;22070;50.922;5.430;2024-03-23T06:32:14;15.27;;;3.70;;
36001;SDS011;22070;50.922;5.430;2024-03-23T06:34:43;7.10;;;3.13;;
36001;SDS011;22070;50.922;5.430;2024-03-23T06:37:08;16.33;;;3.95;;
36001;SDS011;22070;50.922;5.430;2024-03-23T06:39:37;16.45;;;3.90;;
36001;SDS011;22070;50.922;5.430;2024-03-23T06:42:03;12.82;;;3.67;;
36001;SDS011;22070;50.922;5.430;2024-03-23T06:44:29;15.38;;;5.47;;
36001;SDS011;22070;50.922;5.430;2024-03-23T06:46:55;12.73;;;3.75;;
36001;SDS011;22070;50.922;5.430;2024-03-23T06:49:22;12.45;;;3.90;;
36001;SDS011;22070;50.922;5.430;2024-03-23T06:51:48;9.27;;;3.80;;
36001;SDS011;22070;50.922;5.430;2024-03-23T06:54:13;17.65;;;4.75;;
36001;SDS011;22070;50.922;5.430;2024-03-23T06:56:39;11.77;;;3.70;;
36001;SDS011;22070;50.922;5.430;2024-03-23T06:59:05;18.15;;;4.05;;
36001;SDS011;22070;50.922;5.430;2024-03-23T07:01:31;21.37;;;4.53;;
36001;SDS011;22070;50.922;5.430;2024-03-23T07:03:57;10.87;;;4.23;;
36001;SDS011;22070;50.922;5.430;2024-03-23T07:06:23;18.33;;;4.90;;
36001;SDS011;22070;50.922;5.430;2024-03-23T07:08:48;14.80;;;4.70;;
36001;SDS011;22070;50.922;5.430;2024-03-23T07:11:20;15.77;;;4.55;;
36001;SDS011;22070;50.922;5.430;2024-03-23T07:13:49;12.32;;;4.50;;
36001;SDS011;22070;50.922;5.430;2024-03-23T07:16:15;12.82;;;4.30;;
36001;SDS011;22070;50.922;5.430;2024-03-23T07:18:41;10.07;;;3.93;;
36001;SDS011;22070;50.922;5.430;2024-03-23T07:21:07;18.15;;;4.07;;
36001;SDS011;22070;50.922;5.430;2024-03-23T07:23:33;10.03;;;4.13;;
36001;SDS011;22070;50.922;5.430;2024-03-23T07:25:59;12.93;;;3.60;;
36001;SDS011;22070;50.922;5.430;2024-03-23T07:28:26;13.85;;;4.20;;
36001;SDS011;22070;50.922;5.430;2024-03-23T07:33:28;15.52;;;4.55;;
36001;SDS011;22070;50.922;5.430;2024-03-23T07:35:54;12.23;;;3.72;;
36001;SDS011;22070;50.922;5.430;2024-03-23T07:38:20;16.20;;;4.03;;
36001;SDS011;22070;50.922;5.430;2024-03-23T07:40:45;8.17;;;3.00;;
36001;SDS011;22070;50.922;5.430;2024-03-23T07:43:11;12.85;;;3.55;;
36001;SDS011;22070;50.922;5.430;2024-03-23T07:45:37;10.57;;;3.67;;
36001;SDS011;22070;50.922;5.430;2024-03-23T07:48:03;9.88;;;3.53;;
36001;SDS011;22070;50.922;5.430;2024-03-23T07:50:29;10.10;;;2.88;;
36001;SDS011;22070;50.922;5.430;2024-03-23T07:52:55;6.45;;;2.63;;
36001;SDS011;22070;50.922;5.430;2024-03-23T07:55:20;12.45;;;2.53;;
36001;SDS011;22070;50.922;5.430;2024-03-23T07:57:47;11.67;;;2.40;;
36001;SDS011;22070;50.922;5.430;2024-03-23T08:00:12;11.38;;;2.72;;
36001;SDS011;22070;50.922;5.430;2024-03-23T08:02:38;8.90;;;2.60;;
36001;SDS011;22070;50.922;5.430;2024-03-23T08:05:04;6.87;;;2.10;;
36001;SDS011;22070;50.922;5.430;2024-03-23T08:07:30;8.68;;;2.40;;
36001;SDS011;22070;50.922;5.430;2024-03-23T08:09:56;11.80;;;2.43;;
36001;SDS011;22070;50.922;5.430;2024-03-23T08:12:24;13.65;;;2.60;;
36001;SDS011;22070;50.922;5.430;2024-03-23T08:14:49;5.40;;;2.00;;
36001;SDS011;22070;50.922;5.430;2024-03-23T08:17:15;7.70;;;2.10;;
36001;SDS011;22070;50.922;5.430;2024-03-23T08:19:40;8.50;;;2.17;;
36001;SDS011;22070;50.922;5.430;2024-03-23T08:22:06;8.98;;;1.73;;
36001;SDS011;22070;50.922;5.430;2024-03-23T08:24:32;6.03;;;1.70;;
36001;SDS011;22070;50.922;5.430;2024-03-23T08:26:59;10.15;;;1.65;;
36001;SDS011;22070;50.922;5.430;2024-03-23T08:29:24;10.27;;;2.22;;
36001;SDS011;22070;50.922;5.430;2024-03-23T08:31:50;10.63;;;1.83;;
36001;SDS011;22070;50.922;5.430;2024-03-23T08:34:16;5.90;;;1.80;;
36001;SDS011;22070;50.922;5.430;2024-03-23T08:36:41;9.30;;;1.73;;
36001;SDS011;22070;50.922;5.430;2024-03-23T08:39:07;5.87;;;1.70;;
36001;SDS011;22070;50.922;5.430;2024-03-23T08:41:32;7.78;;;1.77;;
36001;SDS011;22070;50.922;5.430;2024-03-23T08:43:58;8.73;;;2.10;;
36001;SDS011;22070;50.922;5.430;2024-03-23T08:46:24;5.07;;;1.63;;
36001;SDS011;22070;50.922;5.430;2024-03-23T08:48:49;5.57;;;1.88;;
36001;SDS011;22070;50.922;5.430;2024-03-23T08:51:17;11.85;;;1.95;;
36001;SDS011;22070;50.922;5.430;2024-03-23T08:53:43;7.53;;;1.88;;
36001;SDS011;22070;50.922;5.430;2024-03-23T08:56:09;9.25;;;1.65;;
36001;SDS011;22070;50.922;5.430;2024-03-23T08:58:35;6.80;;;1.58;;
36001;SDS011;22070;50.922;5.430;2024-03-23T09:01:12;6.32;;;1.30;;
36001;SDS011;22070;50.922;5.430;2024-03-23T09:03:38;5.25;;;1.30;;
36001;SDS011;22070;50.922;5.430;2024-03-23T09:06:08;4.53;;;1.37;;
36001;SDS011;22070;50.922;5.430;2024-03-23T09:08:34;5.38;;;1.00;;
36001;SDS011;22070;50.922;5.430;2024-03-23T09:11:05;7.45;;;1.17;;
36001;SDS011;22070;50.922;5.430;2024-03-23T09:13:35;3.58;;;0.93;;
36001;SDS011;22070;50.922;5.430;2024-03-23T09:16:01;4.53;;;1.20;;
36001;SDS011;22070;50.922;5.430;2024-03-23T09:18:28;4.53;;;1.00;;
36001;SDS011;22070;50.922;5.430;2024-03-23T09:20:56;7.43;;;1.42;;
36001;SDS011;22070;50.922;5.430;2024-03-23T09:23:22;6.13;;;1.25;;
36001;SDS011;22070;50.922;5.430;2024-03-23T09:25:48;11.07;;;1.55;;
36001;SDS011;22070;50.922;5.430;2024-03-23T09:28:13;8.07;;;1.27;;
36001;SDS011;22070;50.922;5.430;2024-03-23T09:30:39;4.13;;;1.30;;
36001;SDS011;22070;50.922;5.430;2024-03-23T09:33:08;5.75;;;1.00;;
36001;SDS011;22070;50.922;5.430;2024-03-23T09:35:37;11.40;;;1.67;;
36001;SDS011;22070;50.922;5.430;2024-03-23T09:38:04;9.45;;;1.15;;
36001;SDS011;22070;50.922;5.430;2024-03-23T09:40:29;3.58;;;1.75;;
36001;SDS011;22070;50.922;5.430;2024-03-23T09:42:56;4.82;;;1.20;;
36001;SDS011;22070;50.922;5.430;2024-03-23T09:45:25;3.90;;;1.07;;
36001;SDS011;22070;50.922;5.430;2024-03-23T09:47:52;9.88;;;1.50;;
36001;SDS011;22070;50.922;5.430;2024-03-23T09:50:19;5.10;;;1.23;;
36001;SDS011;22070;50.922;5.430;2024-03-23T09:52:48;6.13;;;1.20;;
36001;SDS011;22070;50.922;5.430;2024-03-23T09:55:14;5.43;;;1.10;;
36001;SDS011;22070;50.922;5.430;2024-03-23T09:57:40;6.65;;;1.13;;
36001;SDS011;22070;50.922;5.430;2024-03-23T10:00:06;6.32;;;1.05;;
36001;SDS011;22070;50.922;5.430;2024-03-23T10:02:33;4.05;;;1.00;;
36001;SDS011;22070;50.922;5.430;2024-03-23T10:05:00;4.25;;;0.90;;
36001;SDS011;22070;50.922;5.430;2024-03-23T10:07:26;4.55;;;0.88;;
36001;SDS011;22070;50.922;5.430;2024-03-23T10:09:54;5.80;;;1.23;;
36001;SDS011;22070;50.922;5.430;2024-03-23T10:12:19;2.63;;;1.08;;
36001;SDS011;22070;50.922;5.430;2024-03-23T10:14:45;4.87;;;1.17;;
36001;SDS011;22070;50.922;5.430;2024-03-23T10:17:16;6.88;;;1.42;;
36001;SDS011;22070;50.922;5.430;2024-03-23T10:19:43;7.40;;;2.03;;
36001;SDS011;22070;50.922;5.430;2024-03-23T10:22:17;6.00;;;1.38;;
36001;SDS011;22070;50.922;5.430;2024-03-23T10:24:44;2.53;;;1.05;;
36001;SDS011;22070;50.922;5.430;2024-03-23T10:27:12;2.33;;;0.77;;
36001;SDS011;22070;50.922;5.430;2024-03-23T10:29:44;4.03;;;1.05;;
36001;SDS011;22070;50.922;5.430;2024-03-23T10:32:14;6.25;;;1.02;;
36001;SDS011;22070;50.922;5.430;2024-03-23T10:34:40;5.72;;;1.08;;
36001;SDS011;22070;50.922;5.430;2024-03-23T10:37:07;5.00;;;0.80;;
36001;SDS011;22070;50.922;5.430;2024-03-23T10:39:34;6.40;;;0.80;;
36001;SDS011;22070;50.922;5.430;2024-03-23T10:42:02;7.22;;;1.08;;
36001;SDS011;22070;50.922;5.430;2024-03-23T10:44:41;5.22;;;1.08;;
36001;SDS011;22070;50.922;5.430;2024-03-23T10:47:07;10.57;;;1.08;;
36001;SDS011;22070;50.922;5.430;2024-03-23T10:49:34;2.70;;;1.27;;
36001;SDS011;22070;50.922;5.430;2024-03-23T10:52:01;2.95;;;0.95;;
36001;SDS011;22070;50.922;5.430;2024-03-23T10:54:31;4.03;;;1.13;;
36001;SDS011;22070;50.922;5.430;2024-03-23T10:57:05;6.82;;;1.38;;
36001;SDS011;22070;50.922;5.430;2024-03-23T11:02:01;2.10;;;0.22;;
36001;SDS011;22070;50.922;5.430;2024-03-23T11:06:59;3.60;;;0.50;;
36001;SDS011;22070;50.922;5.430;2024-03-23T11:14:48;2.85;;;0.52;;
36001;SDS011;22070;50.922;5.430;2024-03-23T11:17:18;0.90;;;0.77;;
36001;SDS011;22070;50.922;5.430;2024-03-23T11:19:52;3.55;;;1.13;;
36001;SDS011;22070;50.922;5.430;2024-03-23T11:27:48;2.83;;;0.90;;
36001;SDS011;22070;50.922;5.430;2024-03-23T11:32:48;1.10;;;0.70;;
36001;SDS011;22070;50.922;5.430;2024-03-23T11:35:48;4.55;;;0.70;;
36001;SDS011;22070;50.922;5.430;2024-03-23T11:38:08;1.88;;;0.90;;
36001;SDS011;22070;50.922;5.430;2024-03-23T11:43:08;2.28;;;0.73;;
36001;SDS011;22070;50.922;5.430;2024-03-23T11:48:20;7.03;;;1.73;;
36001;SDS011;22070;50.922;5.430;2024-03-23T11:50:51;4.25;;;1.30;;
36001;SDS011;22070;50.922;5.430;2024-03-23T11:53:21;2.83;;;0.98;;
36001;SDS011;22070;50.922;5.430;2024-03-23T11:55:51;1.98;;;1.20;;
36001;SDS011;22070;50.922;5.430;2024-03-23T11:58:21;7.88;;;1.20;;
36001;SDS011;22070;50.922;5.430;2024-03-23T12:03:17;1.38;;;1.00;;
36001;SDS011;22070;50.922;5.430;2024-03-23T12:10:49;5.03;;;0.93;;
36001;SDS011;22070;50.922;5.430;2024-03-23T12:13:19;3.17;;;0.60;;
36001;SDS011;22070;50.922;5.430;2024-03-23T12:15:47;3.28;;;0.85;;
36001;SDS011;22070;50.922;5.430;2024-03-23T12:18:14;2.80;;;0.40;;
36001;SDS011;22070;50.922;5.430;2024-03-23T12:20:40;0.73;;;0.63;;
36001;SDS011;22070;50.922;5.430;2024-03-23T12:23:15;0.57;;;0.47;;
36001;SDS011;22070;50.922;5.430;2024-03-23T12:25:41;0.57;;;0.47;;
36001;SDS011;22070;50.922;5.430;2024-03-23T12:28:06;1.55;;;0.50;;
36001;SDS011;22070;50.922;5.430;2024-03-23T12:30:36;0.93;;;0.50;;
36001;SDS011;22070;50.922;5.430;2024-03-23T12:33:04;0.88;;;0.70;;
36001;SDS011;22070;50.922;5.430;2024-03-23T12:35:31;1.75;;;0.70;;
36001;SDS011;22070;50.922;5.430;2024-03-23T12:37:57;3.33;;;0.80;;
36001;SDS011;22070;50.922;5.430;2024-03-23T12:40:22;5.57;;;1.58;;
36001;SDS011;22070;50.922;5.430;2024-03-23T12:42:48;4.40;;;0.73;;
36001;SDS011;22070;50.922;5.430;2024-03-23T12:45:14;1.63;;;0.70;;
36001;SDS011;22070;50.922;5.430;2024-03-23T12:47:39;3.90;;;0.65;;
36001;SDS011;22070;50.922;5.430;2024-03-23T12:50:05;1.53;;;0.90;;
36001;SDS011;22070;50.922;5.430;2024-03-23T12:52:32;3.63;;;0.80;;
36001;SDS011;22070;50.922;5.430;2024-03-23T12:54:58;4.13;;;0.90;;
36001;SDS011;22070;50.922;5.430;2024-03-23T12:57:24;6.87;;;1.00;;
36001;SDS011;22070;50.922;5.430;2024-03-23T12:59:53;5.68;;;0.80;;
36001;SDS011;22070;50.922;5.430;2024-03-23T13:02:19;4.85;;;1.13;;
36001;SDS011;22070;50.922;5.430;2024-03-23T13:04:52;2.63;;;0.90;;
36001;SDS011;22070;50.922;5.430;2024-03-23T13:07:18;3.22;;;0.88;;
36001;SDS011;22070;50.922;5.430;2024-03-23T13:09:45;6.78;;;1.17;;
36001;SDS011;22070;50.922;5.430;2024-03-23T13:12:10;5.70;;;1.27;;
36001;SDS011;22070;50.922;5.430;2024-03-23T13:14:37;3.35;;;0.47;;
36001;SDS011;22070;50.922;5.430;2024-03-23T13:17:06;16.67;;;1.30;;
36001;SDS011;22070;50.922;5.430;2024-03-23T13:19:32;5.28;;;0.50;;
36001;SDS011;22070;50.922;5.430;2024-03-23T13:21:58;1.80;;;0.50;;
36001;SDS011;22070;50.922;5.430;2024-03-23T13:24:25;4.18;;;0.80;;
36001;SDS011;22070;50.922;5.430;2024-03-23T13:26:52;6.30;;;1.05;;
36001;SDS011;22070;50.922;5.430;2024-03-23T13:31:44;3.07;;;0.73;;
36001;SDS011;22070;50.922;5.430;2024-03-23T13:34:14;4.78;;;1.00;;
36001;SDS011;22070;50.922;5.430;2024-03-23T13:36:43;3.13;;;0.70;;
36001;SDS011;22070;50.922;5.430;2024-03-23T13:39:09;1.85;;;0.70;;
36001;SDS011;22070;50.922;5.430;2024-03-23T13:41:40;4.60;;;0.75;;
36001;SDS011;22070;50.922;5.430;2024-03-23T13:44:06;2.88;;;0.80;;
36001;SDS011;22070;50.922;5.430;2024-03-23T13:46:32;3.53;;;0.47;;
36001;SDS011;22070;50.922;5.430;2024-03-23T13:48:59;3.60;;;0.85;;
36001;SDS011;22070;50.922;5.430;2024-03-23T13:51:25;7.30;;;0.98;;
36001;SDS011;22070;50.922;5.430;2024-03-23T13:53:53;2.42;;;0.70;;
36001;SDS011;22070;50.922;5.430;2024-03-23T13:56:19;4.10;;;0.88;;
36001;SDS011;22070;50.922;5.430;2024-03-23T13:58:45;8.60;;;0.93;;
36001;SDS011;22070;50.922;5.430;2024-03-23T14:01:12;3.60;;;0.70;;
36001;SDS011;22070;50.922;5.430;2024-03-23T14:03:38;8.27;;;0.75;;
36001;SDS011;22070;50.922;5.430;2024-03-23T14:06:04;3.95;;;0.90;;
36001;SDS011;22070;50.922;5.430;2024-03-23T14:08:31;3.65;;;1.00;;
36001;SDS011;22070;50.922;5.430;2024-03-23T14:13:23;5.10;;;1.30;;
36001;SDS011;22070;50.922;5.430;2024-03-23T14:15:52;5.80;;;0.77;;
36001;SDS011;22070;50.922;5.430;2024-03-23T14:18:18;2.42;;;0.55;;
36001;SDS011;22070;50.922;5.430;2024-03-23T14:20:44;5.18;;;0.82;;
36001;SDS011;22070;50.922;5.430;2024-03-23T14:23:10;4.00;;;0.50;;
36001;SDS011;22070;50.922;5.430;2024-03-23T14:25:35;1.53;;;0.40;;
36001;SDS011;22070;50.922;5.430;2024-03-23T14:28:01;4.10;;;0.43;;
36001;SDS011;22070;50.922;5.430;2024-03-23T14:30:27;2.73;;;0.50;;
36001;SDS011;22070;50.922;5.430;2024-03-23T14:32:52;0.93;;;0.47;;
36001;SDS011;22070;50.922;5.430;2024-03-23T14:35:18;0.47;;;0.20;;
36001;SDS011;22070;50.922;5.430;2024-03-23T14:37:43;0.30;;;0.20;;
36001;SDS011;22070;50.922;5.430;2024-03-23T14:40:12;4.90;;;0.40;;
36001;SDS011;22070;50.922;5.430;2024-03-23T14:42:38;1.95;;;0.28;;
36001;SDS011;22070;50.922;5.430;2024-03-23T14:45:04;1.33;;;0.50;;
36001;SDS011;22070;50.922;5.430;2024-03-23T14:47:30;1.23;;;0.40;;
36001;SDS011;22070;50.922;5.430;2024-03-23T14:49:56;0.77;;;0.45;;
36001;SDS011;22070;50.922;5.430;2024-03-23T14:52:23;1.30;;;0.50;;
36001;SDS011;22070;50.922;5.430;2024-03-23T14:54:49;2.93;;;0.60;;
36001;SDS011;22070;50.922;5.430;2024-03-23T14:57:15;4.07;;;1.15;;
36001;SDS011;22070;50.922;5.430;2024-03-23T14:59:41;3.03;;;1.20;;
36001;SDS011;22070;50.922;5.430;2024-03-23T15:02:09;2.72;;;0.90;;
36001;SDS011;22070;50.922;5.430;2024-03-23T15:04:37;3.72;;;1.00;;
36001;SDS011;22070;50.922;5.430;2024-03-23T15:07:05;5.82;;;1.30;;
36001;SDS011;22070;50.922;5.430;2024-03-23T15:09:31;2.83;;;1.05;;
36001;SDS011;22070;50.922;5.430;2024-03-23T15:11:57;1.60;;;1.00;;
36001;SDS011;22070;50.922;5.430;2024-03-23T15:14:23;4.80;;;1.50;;
36001;SDS011;22070;50.922;5.430;2024-03-23T15:16:48;3.40;;;1.40;;
36001;SDS011;22070;50.922;5.430;2024-03-23T15:21:42;5.88;;;1.40;;
36001;SDS011;22070;50.922;5.430;2024-03-23T15:24:08;2.40;;;1.17;;
36001;SDS011;22070;50.922;5.430;2024-03-23T15:26:36;7.88;;;1.55;;
36001;SDS011;22070;50.922;5.430;2024-03-23T15:29:05;1.45;;;1.13;;
36001;SDS011;22070;50.922;5.430;2024-03-23T15:31:40;2.17;;;1.23;;
36001;SDS011;22070;50.922;5.430;2024-03-23T15:34:05;6.60;;;1.42;;
36001;SDS011;22070;50.922;5.430;2024-03-23T15:36:34;6.70;;;1.25;;
36001;SDS011;22070;50.922;5.430;2024-03-23T15:39:02;4.03;;;0.95;;
36001;SDS011;22070;50.922;5.430;2024-03-23T15:41:27;1.35;;;0.93;;
36001;SDS011;22070;50.922;5.430;2024-03-23T15:43:53;5.10;;;1.50;;
36001;SDS011;22070;50.922;5.430;2024-03-23T15:46:19;1.77;;;0.97;;
36001;SDS011;22070;50.922;5.430;2024-03-23T15:48:44;0.53;;;0.40;;
36001;SDS011;22070;50.922;5.430;2024-03-23T15:51:14;1.63;;;0.50;;
36001;SDS011;22070;50.922;5.430;2024-03-23T15:53:40;2.33;;;0.57;;
36001;SDS011;22070;50.922;5.430;2024-03-23T15:56:05;3.83;;;0.60;;
36001;SDS011;22070;50.922;5.430;2024-03-23T15:58:32;2.80;;;0.60;;
36001;SDS011;22070;50.922;5.430;2024-03-23T16:03:35;2.20;;;0.68;;
36001;SDS011;22070;50.922;5.430;2024-03-23T16:06:05;2.67;;;0.70;;
36001;SDS011;22070;50.922;5.430;2024-03-23T16:08:34;2.28;;;1.00;;
36001;SDS011;22070;50.922;5.430;2024-03-23T16:11:04;6.40;;;0.50;;
36001;SDS011;22070;50.922;5.430;2024-03-23T16:13:31;3.67;;;0.77;;
36001;SDS011;22070;50.922;5.430;2024-03-23T16:15:58;3.53;;;0.65;;
36001;SDS011;22070;50.922;5.430;2024-03-23T16:18:24;2.40;;;0.90;;
36001;SDS011;22070;50.922;5.430;2024-03-23T16:20:54;3.58;;;1.05;;
36001;SDS011;22070;50.922;5.430;2024-03-23T16:23:20;2.38;;;0.52;;
36001;SDS011;22070;50.922;5.430;2024-03-23T16:25:49;2.30;;;0.98;;